De Witt, Iowa
Current Conditions -  °F | °C
As of 10:15 AM on Sunday 23 Nov 2014 (Local Time) from KCWI Reporting Station
Overcast Overcast  
Wind Chill: 43°   Ceiling: 1900
Heat Index: 48°   Visibility: 5mi
Dew Point: 46°   Wind: 12mph
Humidity: 93%   Direction: 170°S
Pressure: 29.62"   Gusts: NA
Location:  41.82°N, 90.54°W
Report Text: KCWI 231615Z AUTO 17010KT 5SM SCT005 OVC019 09/08 A2962 RMK AO1 P0002
Loading
Personal Weather Stations






























Interactive Weather Map New forecast layout! Learn more

10-Day Weather Forecast

Advertisements
Track Severe Weather on mobile